Time;durP1;ratioP1;P1;durP2;ratioP2;P2;SDS_P1;SDS_P2;PMS_P1;PMS_P2;Temp;Humidity;BMP_temperature;BMP_pressure;BME280_temperature;BME280_humidity;BME280_pressure;Samples;Min_cycle;Max_cycle;Signal;HPM_P1;HPM_P2
2023/09/27 00:00:32;;;;;;;135.53;11.87;;;;;;;22.38;57.56;99960.19;7283795;19;129433;-37
2023/09/27 00:03:00;;;;;;;145.37;12.27;;;;;;;22.40;57.20;99958.25;7278902;19;129730;-36
2023/09/27 00:05:26;;;;;;;169.85;13.75;;;;;;;22.39;57.19;99957.44;7285137;19;130583;-39
2023/09/27 00:07:52;;;;;;;198.60;15.20;;;;;;;22.38;57.40;99954.94;7283544;19;129939;-37
2023/09/27 00:10:18;;;;;;;125.07;11.77;;;;;;;22.38;57.78;99954.94;7284795;19;129906;-33
2023/09/27 00:12:45;;;;;;;100.22;9.98;;;;;;;22.38;57.74;99949.72;7283213;19;130317;-39
2023/09/27 00:15:12;;;;;;;145.10;12.88;;;;;;;22.38;57.14;99949.72;7285187;19;129374;-34
2023/09/27 00:17:38;;;;;;;204.70;15.60;;;;;;;22.39;56.90;99946.97;7281255;19;133112;-38
2023/09/27 00:20:05;;;;;;;160.13;13.70;;;;;;;22.40;57.31;99947.75;7284750;19;130164;-35
2023/09/27 00:22:31;;;;;;;145.80;13.27;;;;;;;22.37;56.92;99953.28;7282143;19;132739;-37
2023/09/27 00:24:57;;;;;;;154.47;13.10;;;;;;;22.35;57.22;99949.97;7285557;19;129547;-38
2023/09/27 00:27:22;;;;;;;169.53;14.07;;;;;;;22.35;57.01;99956.03;7281897;19;132425;-37
2023/09/27 00:29:48;;;;;;;138.20;12.53;;;;;;;22.37;57.61;99953.28;7283327;19;130230;-35
2023/09/27 00:32:13;;;;;;;156.27;13.60;;;;;;;22.36;57.62;99952.44;7276317;19;131634;-36
2023/09/27 00:34:39;;;;;;;221.17;18.10;;;;;;;22.36;57.08;99951.63;7279704;19;132005;-36
2023/09/27 00:37:04;;;;;;;179.23;14.40;;;;;;;22.37;57.42;99946.25;7285428;19;129401;-37
2023/09/27 00:39:30;;;;;;;153.15;13.63;;;;;;;22.25;57.26;99928.16;7291607;19;131099;-37
2023/09/27 00:41:55;;;;;;;91.13;10.33;;;;;;;22.36;57.15;99943.78;7287483;19;132863;-36
2023/09/27 00:44:20;;;;;;;226.98;16.92;;;;;;;22.38;57.33;99947.09;7287028;19;131026;-38
2023/09/27 00:46:46;;;;;;;170.63;14.70;;;;;;;22.39;56.82;99935.63;7293110;19;129782;-36
2023/09/27 00:49:13;;;;;;;128.90;11.93;;;;;;;22.36;56.97;99933.28;7291887;19;130211;-39
2023/09/27 00:51:39;;;;;;;189.88;15.82;;;;;;;22.36;57.25;99935.91;7286591;19;129814;-37
2023/09/27 00:54:06;;;;;;;148.13;12.70;;;;;;;22.36;57.03;99935.91;7291273;19;132349;-38
2023/09/27 00:56:32;;;;;;;196.10;15.07;;;;;;;22.41;57.02;99933.72;7287990;19;129508;-36
2023/09/27 00:58:58;;;;;;;141.03;12.47;;;;;;;22.37;56.94;99938.41;7289938;19;130129;-36
2023/09/27 01:01:26;;;;;;;109.43;10.53;;;;;;;22.38;57.35;99944.47;7286081;19;130258;-38
2023/09/27 01:03:53;;;;;;;120.43;11.50;;;;;;;22.38;57.06;99936.63;7292127;19;129805;-37
2023/09/27 01:06:19;;;;;;;196.85;15.02;;;;;;;22.34;56.93;99933.44;7288473;19;130109;-38
2023/09/27 01:08:45;;;;;;;203.35;17.05;;;;;;;22.37;56.48;99940.19;7288743;19;131750;-34
2023/09/27 01:11:10;;;;;;;126.13;11.40;;;;;;;22.37;56.84;99940.19;7288476;19;130661;-36
2023/09/27 01:13:36;;;;;;;203.20;16.57;;;;;;;22.37;56.64;99937.56;7286999;19;130972;-37
2023/09/27 01:16:02;;;;;;;143.75;12.43;;;;;;;22.37;57.11;99933.16;7293617;19;129748;-39
2023/09/27 01:18:28;;;;;;;152.35;13.32;;;;;;;22.41;57.27;99928.47;7291716;19;129428;-41
2023/09/27 01:20:53;;;;;;;178.43;13.97;;;;;;;22.37;56.73;99930.53;7285779;19;132177;-36
2023/09/27 01:23:19;;;;;;;179.70;13.60;;;;;;;22.39;56.97;99943.50;7287844;19;132336;-39
2023/09/27 01:25:45;;;;;;;142.50;12.70;;;;;;;22.39;57.21;99940.88;7288148;19;129729;-36
2023/09/27 01:28:11;;;;;;;;;;;;;;;22.43;58.32;99931.78;7289347;19;131032;-38
2023/09/27 01:30:39;;;;;;;146.55;12.13;;;;;;;22.42;57.38;99924.88;7286037;19;130673;-36
2023/09/27 01:33:09;;;;;;;181.55;14.40;;;;;;;22.39;57.71;99926.00;7286069;19;130286;-36
2023/09/27 01:35:37;;;;;;;182.63;14.40;;;;;;;22.37;57.34;99924.47;7289338;19;129670;-35
2023/09/27 01:38:04;;;;;;;132.75;11.90;;;;;;;22.38;56.99;99920.91;7292316;19;132064;-39
2023/09/27 01:40:30;;;;;;;149.00;12.68;;;;;;;22.39;57.31;99919.91;7287504;19;131457;-35
2023/09/27 01:43:00;;;;;;;121.57;10.63;;;;;;;22.37;57.28;99912.19;7289189;19;130116;-36
2023/09/27 01:45:26;;;;;;;183.68;13.90;;;;;;;22.39;56.81;99914.69;7286796;19;130711;-35
2023/09/27 01:47:52;;;;;;;115.25;10.65;;;;;;;22.37;56.39;99912.19;7287816;19;130985;-37
2023/09/27 01:50:23;;;;;;;154.60;12.63;;;;;;;22.39;56.96;99909.44;7286939;19;129119;-38
2023/09/27 01:52:49;;;;;;;178.63;14.45;;;;;;;22.38;56.82;99908.59;7291089;19;131987;-37
2023/09/27 01:55:14;;;;;;;195.63;14.60;;;;;;;22.38;56.63;99913.03;7288901;19;129532;-36
2023/09/27 01:57:40;;;;;;;147.63;11.85;;;;;;;22.38;56.53;99913.03;7290989;19;133003;-37
2023/09/27 02:00:10;;;;;;;151.77;12.00;;;;;;;22.37;56.59;99911.38;7288779;19;132329;-39
2023/09/27 02:02:35;;;;;;;147.35;12.60;;;;;;;22.36;56.34;99913.16;7285250;19;129138;-38
2023/09/27 02:05:02;;;;;;;127.20;10.63;;;;;;;22.37;56.24;99916.59;7290816;19;130030;-35
2023/09/27 02:07:27;;;;;;;153.13;12.95;;;;;;;22.38;56.30;99913.03;7285919;19;131246;-35
2023/09/27 02:09:53;;;;;;;163.70;13.30;;;;;;;22.29;56.42;99892.88;7286294;19;131224;-37
2023/09/27 02:12:18;;;;;;;142.48;12.27;;;;;;;22.38;56.79;99907.78;7289060;19;130033;-38
2023/09/27 02:14:43;;;;;;;158.73;13.33;;;;;;;22.38;56.79;99915.66;7289244;19;129644;-36
2023/09/27 02:17:09;;;;;;;117.50;9.97;;;;;;;22.35;56.12;99914.13;7286955;19;129025;-36
2023/09/27 02:19:34;;;;;;;158.93;12.60;;;;;;;22.39;56.68;99914.69;7287078;19;130221;-37
2023/09/27 02:22:00;;;;;;;148.57;12.45;;;;;;;22.41;56.93;99918.00;7287591;19;130251;-38
2023/09/27 02:24:25;;;;;;;177.43;13.88;;;;;;;22.27;56.66;99893.03;7284790;19;129634;-39
2023/09/27 02:26:53;;;;;;;154.23;12.83;;;;;;;22.39;56.55;99909.44;7285512;19;130109;-36
2023/09/27 02:29:19;;;;;;;95.20;9.43;;;;;;;22.39;56.50;99907.66;7285591;19;130535;-39
2023/09/27 02:31:44;;;;;;;185.85;14.15;;;;;;;22.38;56.27;99913.84;7285267;19;129641;-37
2023/09/27 02:34:10;;;;;;;133.23;11.60;;;;;;;22.39;56.23;99909.44;7285654;19;131889;-36
2023/09/27 02:36:35;;;;;;;124.87;11.20;;;;;;;22.41;56.09;99912.75;7285427;19;130933;-36
2023/09/27 02:39:00;;;;;;;130.03;10.83;;;;;;;22.40;56.41;99917.16;7287768;19;130569;-37
2023/09/27 02:41:25;;;;;;;152.37;12.03;;;;;;;22.31;56.17;99897.03;7287118;19;131223;-36
2023/09/27 02:43:51;;;;;;;165.07;13.27;;;;;;;22.41;56.44;99912.75;7286715;19;129612;-36
2023/09/27 02:46:17;;;;;;;163.98;13.02;;;;;;;22.42;56.59;99914.41;7288066;19;130380;-37
2023/09/27 02:48:43;;;;;;;169.93;13.63;;;;;;;22.42;56.15;99909.16;7284174;19;131556;-37
2023/09/27 02:51:08;;;;;;;199.88;15.00;;;;;;;22.39;55.97;99919.91;7283206;19;129661;-37
2023/09/27 02:53:34;;;;;;;130.37;11.50;;;;;;;22.36;56.14;99910.53;7289730;19;129225;-37
2023/09/27 02:55:59;;;;;;;136.33;11.90;;;;;;;22.36;56.28;99909.72;7284705;19;130071;-37
2023/09/27 02:58:25;;;;;;;144.93;12.60;;;;;;;22.35;56.51;99913.28;7288980;19;131184;-37
2023/09/27 03:00:52;;;;;;;206.05;15.30;;;;;;;22.37;55.69;99911.38;7282471;19;130281;-37
2023/09/27 03:03:19;;;;;;;226.40;16.67;;;;;;;22.38;56.47;99905.19;7285705;19;129897;-37
2023/09/27 03:05:44;;;;;;;210.77;15.57;;;;;;;22.38;56.06;99907.78;7284869;19;131139;-37
2023/09/27 03:08:10;;;;;;;109.40;9.60;;;;;;;22.40;56.05;99909.31;7287007;19;129872;-37
2023/09/27 03:10:41;;;;;;;180.02;13.13;;;;;;;22.40;56.72;99906.69;7286466;19;129097;-37
2023/09/27 03:13:09;;;;;;;146.68;11.57;;;;;;;22.44;55.68;99907.25;7289534;19;132489;-36
2023/09/27 03:15:37;;;;;;;145.43;11.98;;;;;;;22.40;55.78;99911.09;7283777;19;130259;-37
2023/09/27 03:18:03;;;;;;;139.30;11.73;;;;;;;22.39;55.68;99909.44;7285697;19;130443;-37
2023/09/27 03:20:30;;;;;;;178.20;13.07;;;;;;;22.36;55.73;99909.72;7285670;19;130346;-37
2023/09/27 03:22:56;;;;;;;161.80;13.00;;;;;;;22.34;56.17;99917.72;7287625;19;131801;-37
2023/09/27 03:25:21;;;;;;;109.03;10.47;;;;;;;22.36;56.12;99912.34;7287381;19;129715;-37
2023/09/27 03:27:47;;;;;;;160.43;13.20;;;;;;;22.39;56.06;99914.69;7282445;19;130793;-37
2023/09/27 03:30:12;;;;;;;199.65;14.75;;;;;;;22.38;55.86;99918.28;7285500;19;131133;-37
2023/09/27 03:32:38;;;;;;;143.30;11.85;;;;;;;22.36;55.46;99925.44;7286515;19;129805;-37
2023/09/27 03:35:04;;;;;;;112.93;10.00;;;;;;;22.39;55.79;99935.63;7285689;19;130121;-37
2023/09/27 03:37:30;;;;;;;250.33;18.30;;;;;;;22.38;55.96;99939.22;7282946;19;131113;-36
2023/09/27 03:39:56;;;;;;;196.98;15.48;;;;;;;22.40;55.49;99947.75;7285507;19;131867;-37
2023/09/27 03:42:22;;;;;;;130.98;11.38;;;;;;;22.37;55.57;99948.88;7285936;19;129223;-37
2023/09/27 03:44:51;;;;;;;175.60;13.77;;;;;;;22.38;56.30;99945.28;7280009;19;129681;-37
2023/09/27 03:47:16;;;;;;;140.00;11.40;;;;;;;22.36;55.92;99946.41;7282578;19;132481;-37
2023/09/27 03:49:42;;;;;;;184.00;14.03;;;;;;;22.36;55.46;99951.63;7283566;19;130397;-37
2023/09/27 03:52:08;;;;;;;109.53;10.00;;;;;;;22.38;55.56;99944.47;7286856;19;129271;-36
2023/09/27 03:54:33;;;;;;;142.70;11.85;;;;;;;22.28;55.80;99927.91;7286001;19;130311;-37
2023/09/27 03:56:59;;;;;;;126.57;11.03;;;;;;;22.36;55.58;99951.63;7279678;19;129464;-37
2023/09/27 03:59:25;;;;;;;190.65;14.23;;;;;;;22.34;55.68;99953.56;7284851;19;129952;-37
2023/09/27 04:01:51;;;;;;;186.43;14.83;;;;;;;22.35;55.34;99952.59;7277600;19;130669;-37
2023/09/27 04:04:17;;;;;;;134.83;11.50;;;;;;;22.34;55.30;99949.16;7281478;19;130339;-37
2023/09/27 04:06:43;;;;;;;137.63;10.90;;;;;;;22.35;55.61;99950.78;7282897;19;131557;-36
2023/09/27 04:09:09;;;;;;;161.45;12.82;;;;;;;22.35;55.97;99950.78;7284148;19;132208;-36
2023/09/27 04:11:35;;;;;;;150.10;12.45;;;;;;;22.36;55.81;99946.41;7285998;19;129535;-37
2023/09/27 04:14:00;;;;;;;115.97;10.43;;;;;;;22.37;55.77;99946.25;7290854;19;130098;-37
2023/09/27 04:16:28;;;;;;;163.10;12.53;;;;;;;22.35;55.73;99939.47;7290257;19;130349;-37
2023/09/27 04:18:54;;;;;;;191.63;14.60;;;;;;;22.37;55.33;99945.41;7291737;19;130383;-37
2023/09/27 04:21:19;;;;;;;100.03;9.23;;;;;;;22.38;55.34;99944.47;7291430;19;130648;-37
2023/09/27 04:23:54;;;;;;;157.47;12.90;;;;;;;22.31;55.92;99943.34;7288182;19;131002;-36
2023/09/27 04:26:20;;;;;;;148.38;11.90;;;;;;;22.29;55.49;99955.75;7285950;19;133520;-37
2023/09/27 04:28:45;;;;;;;208.03;15.73;;;;;;;22.22;55.76;99933.69;7289155;19;130752;-36
2023/09/27 04:31:10;;;;;;;133.35;11.73;;;;;;;22.36;55.54;99967.34;7290640;19;131800;-37
2023/09/27 04:33:36;;;;;;;162.87;12.77;;;;;;;22.28;55.85;99956.72;7292670;19;130217;-36
2023/09/27 04:36:01;;;;;;;118.67;10.47;;;;;;;22.33;55.98;99967.63;7290444;19;131619;-37
2023/09/27 04:38:26;;;;;;;179.70;13.80;;;;;;;22.31;55.85;99969.56;7293174;19;132994;-37
2023/09/27 04:40:52;;;;;;;159.70;12.97;;;;;;;22.32;55.90;99961.56;7287983;19;130280;-37
2023/09/27 04:43:17;;;;;;;138.73;11.33;;;;;;;22.33;55.26;99970.25;7289765;19;130464;-36
2023/09/27 04:45:42;;;;;;;167.80;13.03;;;;;;;22.37;56.21;99969.00;7290393;19;130440;-37
2023/09/27 04:48:08;;;;;;;161.65;12.73;;;;;;;22.35;55.95;99970.91;7284756;19;130331;-37
2023/09/27 04:50:34;;;;;;;123.38;10.90;;;;;;;22.34;55.81;99980.59;7288601;19;131083;-37
2023/09/27 04:53:00;;;;;;;178.93;14.02;;;;;;;22.37;55.25;99979.47;7287829;19;130211;-37
2023/09/27 04:55:25;;;;;;;215.97;16.00;;;;;;;22.36;55.78;99977.81;7284175;19;131544;-37
2023/09/27 04:57:50;;;;;;;139.80;11.53;;;;;;;22.35;55.08;99970.91;7290107;19;129478;-37
2023/09/27 05:00:19;;;;;;;147.20;12.07;;;;;;;22.30;55.59;99979.19;7289589;19;129381;-37
2023/09/27 05:02:45;;;;;;;96.10;9.50;;;;;;;22.29;55.14;99976.72;7286343;19;130098;-36
2023/09/27 05:05:11;;;;;;;186.05;13.73;;;;;;;22.31;55.83;99980.03;7287947;19;132174;-38
2023/09/27 05:07:36;;;;;;;125.80;11.10;;;;;;;22.31;55.26;99980.88;7290387;19;129043;-37
2023/09/27 05:10:02;;;;;;;175.77;13.83;;;;;;;22.33;55.02;99981.53;7279784;19;131121;-36
2023/09/27 05:12:28;;;;;;;139.87;12.13;;;;;;;22.33;55.08;99983.34;7287448;19;130914;-37
2023/09/27 05:14:53;;;;;;;224.20;17.65;;;;;;;22.30;55.92;99978.34;7286722;19;131475;-37
2023/09/27 05:17:19;;;;;;;189.80;14.13;;;;;;;22.30;55.28;99973.94;7282699;19;129657;-37
2023/09/27 05:19:44;;;;;;;185.18;14.15;;;;;;;22.29;55.65;99976.72;7280086;19;129756;-36
2023/09/27 05:22:11;;;;;;;185.18;14.25;;;;;;;22.29;55.44;99979.31;7284643;19;131209;-37
2023/09/27 05:24:38;;;;;;;141.80;11.73;;;;;;;22.31;54.97;99980.03;7289818;19;134056;-36
2023/09/27 05:27:05;;;;;;;208.90;15.50;;;;;;;22.29;55.44;99989.81;7288722;19;130922;-36
2023/09/27 05:29:31;;;;;;;171.25;12.77;;;;;;;22.29;55.31;99992.41;7288826;19;129300;-35
2023/09/27 05:31:57;;;;;;;175.63;13.50;;;;;;;22.28;55.55;99996.00;7285685;19;130940;-36
2023/09/27 05:34:22;;;;;;;181.10;13.80;;;;;;;22.27;55.75;99987.31;7287167;19;129823;-35
2023/09/27 05:36:48;;;;;;;89.95;8.85;;;;;;;22.31;55.37;99985.25;7291522;19;129126;-35
2023/09/27 05:39:13;;;;;;;91.30;9.20;;;;;;;22.28;55.68;100001.25;7288862;19;130989;-36
2023/09/27 05:41:39;;;;;;;135.68;11.35;;;;;;;22.28;55.93;99996.81;7284702;19;130156;-35
2023/09/27 05:44:04;;;;;;;168.47;14.60;;;;;;;22.31;55.95;99995.75;7288279;19;130662;-35
2023/09/27 05:46:32;;;;;;;148.03;13.37;;;;;;;22.28;55.75;99996.00;7280801;19;131001;-36
2023/09/27 05:48:57;;;;;;;129.82;11.77;;;;;;;22.29;55.94;100005.53;7288343;19;130096;-36
2023/09/27 05:51:23;;;;;;;168.67;13.70;;;;;;;22.18;56.00;99990.72;7288740;19;131889;-36
2023/09/27 05:53:52;;;;;;;179.30;14.15;;;;;;;22.28;56.08;100007.31;7284713;19;130371;-36
2023/09/27 05:56:18;;;;;;;109.90;11.05;;;;;;;22.23;56.49;100009.50;7289929;19;132112;-36
2023/09/27 05:58:43;;;;;;;149.70;14.30;;;;;;;22.13;56.20;99998.16;7286752;19;130722;-37
2023/09/27 06:01:09;;;;;;;152.48;14.77;;;;;;;22.24;56.32;100012.94;7287201;19;130467;-37
2023/09/27 06:03:38;;;;;;;156.77;15.05;;;;;;;22.24;56.12;100012.94;7288719;19;130254;-36
2023/09/27 06:06:04;;;;;;;157.63;14.60;;;;;;;22.27;56.74;100003.03;7288196;19;130981;-37
2023/09/27 06:08:30;;;;;;;164.90;15.27;;;;;;;22.27;56.60;100004.81;7287971;19;131705;-35
2023/09/27 06:10:56;;;;;;;186.30;15.63;;;;;;;22.27;56.92;100010.06;7286452;19;132081;-36
2023/09/27 06:13:22;;;;;;;167.18;15.35;;;;;;;22.28;56.70;100012.53;7289420;19;130365;-36
2023/09/27 06:15:47;;;;;;;175.70;15.20;;;;;;;22.27;57.00;100015.28;7289105;19;129332;-35
2023/09/27 06:18:13;;;;;;;149.55;13.88;;;;;;;22.25;56.75;100017.22;7288735;19;130322;-36
2023/09/27 06:20:39;;;;;;;200.80;16.35;;;;;;;22.29;57.40;100013.38;7286279;19;129895;-37
2023/09/27 06:23:04;;;;;;;185.77;15.50;;;;;;;22.13;56.79;100013.06;7285779;19;131014;-34
2023/09/27 06:25:32;;;;;;;143.90;12.87;;;;;;;22.25;56.61;100030.31;7290372;19;129473;-35
2023/09/27 06:27:57;;;;;;;177.57;14.93;;;;;;;22.27;57.06;100042.31;7286532;19;129699;-36
2023/09/27 06:30:22;;;;;;;186.67;15.40;;;;;;;22.27;56.83;100042.31;7287022;19;130956;-37
2023/09/27 06:32:48;;;;;;;135.25;12.93;;;;;;;22.26;57.64;100047.69;7289606;19;131457;-35
2023/09/27 06:35:14;;;;;;;140.63;12.37;;;;;;;22.26;57.62;100045.09;7286265;19;130010;-36
2023/09/27 06:37:44;;;;;;;140.13;12.77;;;;;;;22.26;57.41;100045.91;7288882;19;130174;-35
2023/09/27 06:40:16;;;;;;;160.18;13.40;;;;;;;22.26;58.00;100045.09;7284941;19;130283;-37
2023/09/27 06:42:48;;;;;;;150.82;13.25;;;;;;;22.24;57.61;100041.75;7287530;19;131090;-35
2023/09/27 06:45:15;;;;;;;136.90;12.68;;;;;;;22.24;58.11;100041.75;7290154;19;130390;-35
2023/09/27 06:47:42;;;;;;;154.50;12.93;;;;;;;22.23;57.34;100045.34;7287387;19;131273;-37
2023/09/27 06:50:10;;;;;;;140.60;12.63;;;;;;;22.23;57.53;100058.44;7285210;19;131654;-36
2023/09/27 06:52:38;;;;;;;181.95;14.10;;;;;;;22.22;57.92;100062.84;7286410;19;131172;-36
2023/09/27 06:55:05;;;;;;;170.98;14.18;;;;;;;22.25;57.52;100059.13;7287534;19;130411;-35
2023/09/27 06:57:30;;;;;;;148.45;12.27;;;;;;;22.21;57.46;100047.25;7287725;19;129483;-35
2023/09/27 06:59:56;;;;;;;138.70;12.27;;;;;;;22.18;57.52;100047.53;7286434;19;130164;-35
2023/09/27 07:02:21;;;;;;;157.65;13.07;;;;;;;22.24;57.66;100057.47;7285711;19;130271;-36
2023/09/27 07:04:47;;;;;;;154.10;12.73;;;;;;;22.21;57.80;100058.59;7289189;19;130006;-37
2023/09/27 07:07:13;;;;;;;251.05;19.25;;;;;;;22.21;57.70;100069.06;7287083;19;132254;-36
2023/09/27 07:09:40;;;;;;;143.37;12.03;;;;;;;22.22;57.72;100069.88;7286461;19;130562;-34
2023/09/27 07:12:06;;;;;;;183.63;14.63;;;;;;;22.23;57.70;100071.53;7287386;19;131048;-36
2023/09/27 07:14:31;;;;;;;151.33;12.57;;;;;;;22.21;57.98;100066.44;7286886;19;130655;-36
2023/09/27 07:16:57;;;;;;;124.38;11.63;;;;;;;22.22;58.03;100080.34;7286652;19;130246;-34
2023/09/27 07:19:23;;;;;;;161.63;13.43;;;;;;;22.09;58.06;100062.25;7286394;19;130294;-35
2023/09/27 07:21:48;;;;;;;156.55;13.07;;;;;;;22.20;58.36;100085.72;7289512;19;130663;-36
2023/09/27 07:24:14;;;;;;;147.00;12.55;;;;;;;22.21;58.06;100087.38;7285012;19;130329;-37
2023/09/27 07:26:41;;;;;;;134.97;11.43;;;;;;;22.07;58.38;100072.00;7285865;19;131205;-37
2023/09/27 07:29:07;;;;;;;167.63;13.88;;;;;;;22.20;58.49;100098.81;7286879;19;132698;-37
2023/09/27 07:31:32;;;;;;;200.30;15.57;;;;;;;22.22;58.60;100109.16;7285982;19;129361;-36
2023/09/27 07:33:58;;;;;;;181.57;14.60;;;;;;;22.19;58.73;100106.81;7287629;19;130207;-34
2023/09/27 07:36:24;;;;;;;163.38;13.43;;;;;;;22.18;58.17;100108.59;7284988;19;129190;-34
2023/09/27 07:38:57;;;;;;;194.10;15.33;;;;;;;22.14;59.23;100103.75;7285377;19;130968;-36
2023/09/27 07:41:23;;;;;;;158.10;13.20;;;;;;;22.20;58.95;100103.22;7286027;19;130628;-35
2023/09/27 07:43:49;;;;;;;153.27;12.97;;;;;;;22.16;58.67;100104.44;7284124;19;130592;-36
2023/09/27 07:46:14;;;;;;;145.68;12.73;;;;;;;22.06;58.77;100087.84;7285052;19;129498;-36
2023/09/27 07:48:42;;;;;;;202.37;15.53;;;;;;;22.19;58.52;100106.81;7283511;19;130694;-42
2023/09/27 07:51:19;;;;;;;164.88;13.65;;;;;;;22.04;59.24;100089.78;7283746;19;131260;-35
2023/09/27 07:53:45;;;;;;;102.95;9.80;;;;;;;22.17;59.61;100114.78;7288545;19;129539;-36
2023/09/27 07:56:21;;;;;;;161.70;13.90;;;;;;;22.17;59.60;100121.81;7286950;19;129706;-36
2023/09/27 07:58:52;;;;;;;175.90;14.10;;;;;;;22.13;59.11;100113.38;7281610;19;133257;-37
2023/09/27 08:01:21;;;;;;;165.93;13.38;;;;;;;22.01;59.48;100098.72;7284118;19;131215;-36
2023/09/27 08:04:06;;;;;;;213.77;16.10;;;;;;;22.13;59.19;100117.81;7281622;19;129985;-36
2023/09/27 08:06:35;;;;;;;181.00;13.63;;;;;;;22.12;59.50;100111.72;7286243;19;129813;-32
2023/09/27 08:09:01;;;;;;;145.80;12.90;;;;;;;22.12;59.64;100110.88;7285465;19;131669;-34
2023/09/27 08:11:27;;;;;;;154.27;13.30;;;;;;;22.14;59.23;100109.81;7281026;19;130103;-35
2023/09/27 08:13:53;;;;;;;76.32;8.30;;;;;;;22.03;59.57;100085.50;7286713;19;131370;-36
2023/09/27 08:16:19;;;;;;;158.90;12.45;;;;;;;22.18;59.15;100099.91;7286357;19;129788;-34
2023/09/27 08:18:45;;;;;;;122.13;10.93;;;;;;;22.19;59.40;100098.94;7284680;19;131973;-35
2023/09/27 08:21:10;;;;;;;174.47;14.27;;;;;;;22.19;58.97;100088.47;7282933;19;129626;-36
2023/09/27 08:23:36;;;;;;;144.82;12.20;;;;;;;22.19;58.90;100085.84;7283896;19;129860;-37
2023/09/27 08:26:01;;;;;;;169.40;13.73;;;;;;;22.21;59.38;100086.56;7285463;19;129456;-35
2023/09/27 08:28:29;;;;;;;150.85;11.82;;;;;;;22.21;59.38;100081.31;7288086;19;131051;-35
2023/09/27 08:30:58;;;;;;;134.00;11.75;;;;;;;22.21;59.16;100079.53;7284826;19;133135;-37
2023/09/27 08:33:24;;;;;;;134.90;11.23;;;;;;;22.20;59.15;100075.25;7285104;19;132385;-36
2023/09/27 08:35:51;;;;;;;169.00;13.07;;;;;;;22.21;58.81;100074.28;7285655;19;130672;-35
2023/09/27 08:38:17;;;;;;;151.13;12.70;;;;;;;22.24;59.11;100078.44;7286252;19;130228;-37
2023/09/27 08:40:42;;;;;;;172.13;13.83;;;;;;;22.20;59.33;100071.78;7282143;19;130453;-37
2023/09/27 08:43:10;;;;;;;170.10;13.50;;;;;;;22.21;59.48;100071.69;7283798;19;130090;-36
2023/09/27 08:45:38;;;;;;;162.65;12.80;;;;;;;22.25;59.38;100075.66;7283333;19;130656;-35
2023/09/27 08:48:04;;;;;;;150.80;11.82;;;;;;;22.24;59.38;100060.09;7285835;19;130154;-33
2023/09/27 08:50:30;;;;;;;;;;;;;;;22.28;60.27;100058.88;7284920;19;131643;-35
2023/09/27 08:52:55;;;;;;;154.00;12.50;;;;;;;22.27;59.31;100055.41;7287788;19;130955;-35
2023/09/27 08:55:21;;;;;;;197.80;14.00;;;;;;;22.27;58.85;100049.34;7284684;19;130234;-34
2023/09/27 08:57:48;;;;;;;137.68;11.00;;;;;;;22.26;59.12;100042.47;7287496;19;130132;-34
2023/09/27 09:00:15;;;;;;;142.63;11.75;;;;;;;22.24;59.13;100037.34;7288181;19;130353;-36
2023/09/27 09:02:43;;;;;;;120.90;10.30;;;;;;;22.12;59.29;100008.75;7291262;19;129714;-35
2023/09/27 09:05:12;;;;;;;241.18;17.40;;;;;;;22.28;58.70;100037.94;7289389;19;129596;-35
2023/09/27 09:07:40;;;;;;;69.85;7.28;;;;;;;22.32;59.26;100040.13;7291487;19;130786;-35
2023/09/27 09:10:09;;;;;;;141.52;11.45;;;;;;;22.30;58.82;100036.81;7291455;19;131423;-35
2023/09/27 09:12:37;;;;;;;135.43;11.15;;;;;;;22.31;58.42;100027.19;7290854;19;129492;-36
2023/09/27 09:15:05;;;;;;;161.48;12.10;;;;;;;22.29;58.46;100035.16;7291271;19;131593;-36
2023/09/27 09:17:34;;;;;;;159.73;12.35;;;;;;;22.33;58.67;100030.50;7291192;19;130186;-33
2023/09/27 09:20:27;;;;;;;136.20;11.15;;;;;;;22.28;59.48;100014.34;7290720;19;131639;-34
2023/09/27 09:22:57;;;;;;;119.93;9.90;;;;;;;22.31;58.55;100021.94;7290208;19;129213;-35
2023/09/27 09:25:23;;;;;;;92.70;8.73;;;;;;;22.33;58.84;100015.59;7290316;19;129135;-36
2023/09/27 09:28:07;;;;;;;142.57;11.25;;;;;;;22.30;59.87;100015.03;7288887;19;131151;-37
2023/09/27 09:30:37;;;;;;;156.52;12.40;;;;;;;22.14;59.29;99993.75;7286426;19;130522;-36
2023/09/27 09:33:08;;;;;;;144.50;11.20;;;;;;;22.33;58.81;100014.78;7289083;19;129212;-33
2023/09/27 09:35:34;;;;;;;136.73;11.55;;;;;;;22.28;58.82;100011.72;7292450;19;130016;-36
2023/09/27 09:38:01;;;;;;;133.93;11.13;;;;;;;22.30;58.99;100004.53;7289243;19;130176;-37
2023/09/27 09:40:27;;;;;;;142.27;10.85;;;;;;;22.32;58.68;100003.47;7286583;19;131896;-36
2023/09/27 09:42:53;;;;;;;189.18;13.75;;;;;;;22.22;58.52;99983.44;7290863;19;131782;-34
2023/09/27 09:45:20;;;;;;;190.55;14.35;;;;;;;22.32;58.70;99998.22;7290148;19;129707;-34
2023/09/27 09:47:46;;;;;;;149.43;11.70;;;;;;;22.34;58.46;100003.31;7290600;19;130650;-34
2023/09/27 09:50:16;;;;;;;153.88;12.23;;;;;;;22.29;58.07;100002.91;7290430;19;131805;-37
2023/09/27 09:52:54;;;;;;;175.63;13.30;;;;;;;22.25;58.97;99998.88;7290337;19;129805;-36
2023/09/27 09:55:26;;;;;;;162.00;12.65;;;;;;;22.28;58.56;99996.00;7289090;19;129366;-34
2023/09/27 09:58:32;;;;;;;179.07;13.70;;;;;;;22.30;59.32;100004.53;7288399;19;130674;-36
2023/09/27 10:01:01;;;;;;;171.43;12.80;;;;;;;22.33;57.88;99994.63;7286383;19;130245;-33
2023/09/27 10:03:30;;;;;;;121.95;10.05;;;;;;;22.34;58.54;99990.22;7289661;19;130375;-36
2023/09/27 10:05:58;;;;;;;143.90;11.25;;;;;;;22.31;58.47;99972.16;7290511;19;129258;-35
2023/09/27 10:08:25;;;;;;;167.95;13.10;;;;;;;22.37;58.41;99979.47;7286565;19;132409;-36
2023/09/27 10:10:50;;;;;;;179.10;13.52;;;;;;;22.30;59.13;99973.94;7287853;19;130445;-36
2023/09/27 10:13:18;;;;;;;158.38;12.32;;;;;;;22.34;58.19;99982.38;7291419;19;129582;-35
2023/09/27 10:15:44;;;;;;;110.80;9.52;;;;;;;22.36;57.99;99976.00;7290293;19;130809;-36
2023/09/27 10:18:21;;;;;;;113.95;9.82;;;;;;;22.18;58.71;99942.78;7289940;19;132089;-33
2023/09/27 10:21:03;;;;;;;176.52;13.23;;;;;;;22.33;59.46;99963.19;7286797;19;131556;-35
2023/09/27 10:23:35;;;;;;;162.80;12.27;;;;;;;22.35;58.98;99960.44;7286703;19;129579;-36
2023/09/27 10:26:20;;;;;;;130.18;10.32;;;;;;;22.31;59.12;99959.06;7290038;19;130230;-35
2023/09/27 10:29:01;;;;;;;185.80;14.45;;;;;;;22.30;58.86;99960.00;7289481;19;130646;-35
2023/09/27 10:31:27;;;;;;;113.25;9.85;;;;;;;22.30;58.36;99957.41;7288487;19;132419;-37
2023/09/27 10:33:53;;;;;;;138.98;11.20;;;;;;;22.31;58.29;99959.06;7290248;19;129951;-34
2023/09/27 10:36:18;;;;;;;113.30;9.73;;;;;;;22.36;58.43;99967.34;7288200;19;129454;-35
2023/09/27 10:38:43;;;;;;;190.88;13.55;;;;;;;22.32;57.60;99956.31;7285843;19;131300;-35
2023/09/27 10:41:29;;;;;;;137.88;11.15;;;;;;;22.27;58.14;99941.97;7288868;19;131527;-35
2023/09/27 10:43:55;;;;;;;138.90;11.23;;;;;;;22.28;57.95;99956.72;7288469;19;131286;-36
2023/09/27 10:46:20;;;;;;;127.00;10.97;;;;;;;22.27;57.83;99952.44;7288187;19;130189;-36
2023/09/27 10:48:55;;;;;;;194.37;14.67;;;;;;;22.16;58.59;99934.22;7287393;19;129414;-36
2023/09/27 10:51:25;;;;;;;188.25;13.77;;;;;;;22.27;58.25;99952.44;7287206;19;130733;-36
2023/09/27 10:53:50;;;;;;;150.75;12.65;;;;;;;22.20;58.13;99959.16;7288803;19;129381;-35
2023/09/27 10:56:16;;;;;;;140.80;11.40;;;;;;;22.20;57.83;99956.53;7288537;19;129643;-36
2023/09/27 10:58:49;;;;;;;165.20;13.27;;;;;;;22.10;58.44;99924.31;7286493;19;130926;-36